Flight Track Log - Related Links

Times and Time Zones

All times are in EDT time to prevent confusion due to time zone crossing. See the PDT4314 flight status page for this flight to view local times or setup timezone preferences in your user account.

Time Position Orientation Groundspeed Altitude Reporting Facility
EDT Latitude Longitude Course Direction KTS MPH feet Rate Location/Type
Fri 06:02:00 PM 42.0165 -75.9168 180° South  Level Estimated
Fri 06:03:00 PM 41.9508 -75.9209 183° South  Level FlightAware Approximate
Fri 06:04:00 PM 41.8851 -75.9250 183° South  Level FlightAware Approximate
Fri 06:05:00 PM 41.8214 -75.9027 160° South  Level Estimated
Fri 06:06:00 PM 41.7562 -75.8902 172° South  Level FlightAware Approximate
Fri 06:07:00 PM 41.6926 -75.8676 159° South  Level Estimated
Fri 06:08:00 PM 41.6289 -75.8452 165° South  Level FlightAware Approximate
Fri 06:09:00 PM 41.5653 -75.8227 153° Southeast  Level Estimated
Fri 06:10:00 PM 41.5016 -75.8003 161° South  Level Estimated
Fri 06:11:00 PM 41.4400 -75.7695 159° South  Level FlightAware Approximate
Fri 06:12:00 PM 41.3783 -75.7388 160° South  Level FlightAware Approximate
Fri 06:13:00 PM 41.3145 -75.7172 162° South  Level Estimated
Fri 06:14:00 PM 41.2526 -75.6875 160° South  Level FlightAware Approximate
Fri 06:15:00 PM 41.1907 -75.6578 160° South  Level FlightAware Approximate
Fri 06:16:00 PM 41.1288 -75.6281 160° South  Level FlightAware Approximate
Fri 06:17:00 PM 41.0647 -75.6080 163° South  Level Estimated
Fri 06:18:00 PM 41.0025 -75.5796 161° South  Level FlightAware Approximate
Fri 06:19:00 PM 40.9402 -75.5513 161° South  Level FlightAware Approximate
Fri 06:20:00 PM 40.8780 -75.5230 161° South  Level FlightAware Approximate
Fri 06:21:00 PM 40.8136 -75.5047 190° South  Level Estimated
Fri 06:22:00 PM 40.7478 -75.5037 179° South  Level FlightAware Approximate
Fri 06:23:00 PM 40.6820 -75.5027 179° South  Level FlightAware Approximate
Fri 06:24:00 PM 40.6162 -75.5017 179° South  Level FlightAware Approximate
Fri 06:25:00 PM 40.5526 -75.4792 187° South  Level Estimated
Fri 06:25:30 PM 40.6833 -75.5667 143° Southeast 231 266 8,000  Level Philadelphia TRACON
Fri 06:26:00 PM 40.4891 -75.4567 190° South  Level Estimated
Fri 06:26:42 PM 40.6000 -75.5667 180° South 239 275 7,300  Level Philadelphia TRACON
Fri 06:27:00 PM 40.4260 -75.4814 197° South  Level FlightAware Approximate
Fri 06:27:36 PM 40.5500 -75.5667 180° South 251 289 6,700  Level Philadelphia TRACON
Fri 06:28:00 PM 40.3635 -75.4541 180° South  Level Estimated
Fri 06:28:36 PM 40.4833 -75.5000 143° Southeast 277 319 6,000  Level Philadelphia TRACON
Fri 06:29:00 PM 40.3011 -75.4268 143° Southeast  Level Estimated
Fri 06:29:36 PM 40.4333 -75.4333 135° Southeast 271 312 5,400  Level Philadelphia TRACON
Fri 06:30:00 PM 40.2386 -75.3996 143° Southeast  Level Estimated
Fri 06:30:42 PM 40.3833 -75.3667 135° Southeast 249 287 5,000  Level Philadelphia TRACON
Fri 06:31:42 PM 40.3167 -75.3167 150° Southeast 238 274 5,000 -238 Level Philadelphia TRACON
Fri 06:32:48 PM 40.2500 -75.2833 159° South 243 280 4,500 -476 Descending Philadelphia TRACON
Fri 06:33:48 PM 40.2000 -75.2167 134° Southeast 260 299 4,000 -263 Descending Philadelphia TRACON
Fri 06:34:42 PM 40.1667 -75.1500 123° Southeast 248 285 4,000  Level Philadelphia TRACON
Fri 06:35:42 PM 40.1167 -75.0833 134° Southeast 249 287 4,000  Level Philadelphia TRACON
Fri 06:36:42 PM 40.0833 -75.0167 123° Southeast 246 283 4,000  Level Philadelphia TRACON
Fri 06:37:43 PM 40.0167 -74.9500 143° Southeast 243 280 4,000  Level Philadelphia TRACON
Fri 06:38:37 PM 39.9667 -74.9333 166° South 224 258 4,000 -100 Level Philadelphia TRACON
Fri 06:39:43 PM 39.9333 -74.9667 217° Southwest 183 211 3,800 -450 Descending Philadelphia TRACON
Fri 06:40:37 PM 39.9333 -75.0333 270° West 167 192 3,100 -947 Descending Philadelphia TRACON
Fri 06:41:37 PM 39.9167 -75.0833 247° West 187 215 2,000 -1,000 Descending Philadelphia TRACON
Fri 06:42:43 PM 39.9000 -75.1500 252° West 138 159 1,000 -750 Descending Philadelphia TRACON
Fri 06:43:37 PM 39.8833 -75.1833 237° Southwest 105 121 500 -556 Descending Philadelphia TRACON

Login

Don't have an account? Register now (free) for customized features, flight alerts, and more!